createdAt,value
2018-10-21T00:03:45.231Z,63.61
2018-10-21T00:08:48.526Z,64.03
2018-10-21T00:13:51.835Z,64.18
2018-10-21T00:18:55.158Z,63.96
2018-10-21T00:23:58.486Z,64.26
2018-10-21T00:29:01.823Z,64.32
2018-10-21T00:34:05.344Z,64.65
2018-10-21T00:39:10.827Z,64.52
2018-10-21T00:44:14.133Z,64.57
2018-10-21T00:49:17.458Z,64.66
2018-10-21T00:54:20.792Z,64.70
2018-10-21T00:59:24.141Z,64.66
2018-10-21T01:04:27.433Z,64.65
2018-10-21T01:09:30.727Z,64.93
2018-10-21T01:14:34.096Z,65.03
2018-10-21T01:19:37.456Z,65.28
2018-10-21T01:24:40.775Z,65.51
2018-10-21T01:29:46.542Z,65.53
2018-10-21T01:34:49.829Z,65.25
2018-10-21T01:40:57.739Z,65.58
2018-10-21T01:46:01.699Z,65.53
2018-10-21T01:51:05.098Z,65.62
2018-10-21T01:56:08.374Z,65.97
2018-10-21T02:01:11.708Z,65.84
2018-10-21T02:06:15.033Z,65.57
2018-10-21T02:11:18.332Z,65.90
2018-10-21T02:16:21.744Z,66.45
2018-10-21T02:21:25.053Z,66.40
2018-10-21T02:26:28.447Z,66.63
2018-10-21T02:31:31.852Z,66.55
2018-10-21T02:36:35.277Z,66.72
2018-10-21T02:41:50.094Z,66.36
2018-10-21T02:46:55.561Z,66.53
2018-10-21T02:52:04.326Z,66.54
2018-10-21T02:57:09.823Z,66.95
2018-10-21T03:02:13.144Z,66.69
2018-10-21T03:07:16.563Z,66.31
2018-10-21T03:12:19.898Z,66.86
2018-10-21T03:17:23.226Z,66.69
2018-10-21T03:22:26.682Z,67.04
2018-10-21T03:27:29.982Z,67.27
2018-10-21T03:32:33.267Z,67.64
2018-10-21T03:37:36.586Z,67.26
2018-10-21T03:42:39.943Z,67.00
2018-10-21T03:47:43.248Z,66.64
2018-10-21T03:52:46.645Z,67.19
2018-10-21T03:57:50.012Z,67.57
2018-10-21T04:02:53.294Z,67.47
2018-10-21T04:07:56.614Z,67.62
2018-10-21T04:13:00.122Z,67.45
2018-10-21T04:18:03.432Z,67.47
2018-10-21T04:23:06.750Z,66.71
2018-10-21T04:28:10.709Z,67.01
2018-10-21T04:33:48.438Z,66.79
2018-10-21T04:40:01.438Z,66.88
2018-10-21T04:45:06.444Z,67.11
2018-10-21T04:50:10.530Z,67.36
2018-10-21T04:55:15.119Z,66.53
2018-10-21T05:00:20.244Z,66.13
2018-10-21T05:05:23.553Z,66.82
2018-10-21T05:10:28.693Z,66.98
2018-10-21T05:15:34.130Z,67.05
2018-10-21T05:20:37.405Z,67.16
2018-10-21T05:25:40.723Z,67.14
2018-10-21T05:30:44.026Z,67.28
2018-10-21T05:35:47.326Z,67.12
2018-10-21T05:40:51.053Z,66.96
2018-10-21T05:45:54.435Z,66.72
2018-10-21T05:50:57.762Z,66.48
2018-10-21T05:56:01.195Z,66.50
2018-10-21T06:01:04.651Z,66.17
2018-10-21T06:06:07.963Z,66.62
2018-10-21T06:11:11.285Z,66.58
2018-10-21T06:16:15.049Z,66.10
2018-10-21T06:21:18.855Z,66.53
2018-10-21T06:26:22.781Z,66.83
2018-10-21T06:31:26.149Z,66.59
2018-10-21T06:36:29.560Z,66.51
2018-10-21T06:41:33.020Z,66.95
2018-10-21T06:46:36.740Z,66.73
2018-10-21T06:51:40.078Z,67.13
2018-10-21T06:56:43.543Z,67.43
2018-10-21T07:01:46.726Z,67.93
2018-10-21T07:06:50.044Z,67.61
2018-10-21T07:11:53.548Z,67.07
2018-10-21T07:16:56.954Z,67.49
2018-10-21T07:22:00.302Z,67.32
2018-10-21T07:27:03.642Z,67.10
2018-10-21T07:32:07.373Z,67.09
2018-10-21T07:37:11.455Z,67.08
2018-10-21T07:42:14.864Z,67.58
2018-10-21T07:47:18.206Z,67.50
2018-10-21T07:52:21.521Z,67.34
2018-10-21T07:57:25.136Z,67.42
2018-10-21T08:02:28.740Z,67.56
2018-10-21T08:07:43.568Z,67.11
2018-10-21T08:12:46.866Z,66.73
2018-10-21T08:17:50.374Z,67.29
2018-10-21T08:22:53.885Z,66.93
2018-10-21T08:27:57.440Z,67.05
2018-10-21T08:33:00.859Z,67.83
2018-10-21T08:38:04.326Z,68.40
2018-10-21T08:43:07.678Z,67.95
2018-10-21T08:48:11.000Z,68.16
2018-10-21T08:53:14.332Z,68.41
2018-10-21T08:58:17.946Z,68.22
2018-10-21T09:03:21.304Z,68.13
2018-10-21T09:08:24.680Z,68.11
2018-10-21T09:13:28.207Z,68.09
2018-10-21T09:18:31.517Z,68.07
2018-10-21T09:23:34.895Z,68.21
2018-10-21T09:28:38.366Z,67.84
2018-10-21T09:33:41.783Z,67.70
2018-10-21T09:38:45.310Z,67.07
2018-10-21T09:43:48.955Z,66.73
2018-10-21T10:39:31.110Z,62.08
2018-10-21T10:44:34.453Z,61.21
2018-10-21T10:49:37.778Z,60.13
2018-10-21T10:54:41.138Z,59.87
2018-10-21T10:59:44.513Z,58.82
2018-10-21T11:04:48.761Z,58.31
2018-10-21T11:09:53.230Z,58.29
2018-10-21T11:14:57.285Z,56.28
2018-10-21T11:20:01.426Z,50.67
2018-10-21T11:25:08.847Z,32.49
2018-10-21T11:30:13.019Z,25.25
2018-10-21T11:35:17.307Z,22.25
2018-10-21T11:40:20.610Z,20.07
2018-10-21T11:45:24.530Z,19.72
2018-10-21T11:50:28.465Z,18.74
2018-10-21T11:55:39.234Z,19.05
2018-10-21T12:00:43.977Z,17.11
2018-10-21T12:05:47.459Z,17.23
2018-10-21T12:10:51.126Z,18.21
2018-10-21T12:15:54.961Z,18.15
2018-10-21T12:20:58.856Z,17.09
2018-10-21T12:26:02.261Z,16.53
2018-10-21T12:31:05.821Z,15.76
2018-10-21T12:36:09.616Z,15.06
2018-10-21T12:41:13.338Z,15.09
2018-10-21T12:46:16.732Z,16.75
2018-10-21T12:51:20.300Z,15.70
2018-10-21T12:56:23.978Z,15.13
2018-10-21T13:01:27.458Z,15.40
2018-10-21T13:06:31.139Z,16.09
2018-10-21T13:11:34.474Z,19.06
2018-10-21T13:16:37.828Z,25.25
2018-10-21T13:21:41.331Z,28.82
2018-10-21T13:26:44.721Z,31.03
2018-10-21T13:31:48.485Z,33.41
2018-10-21T13:36:52.733Z,31.36
2018-10-21T13:41:56.403Z,31.05
2018-10-21T13:46:59.943Z,35.81
2018-10-21T13:52:03.553Z,37.76
2018-10-21T13:57:06.821Z,38.72
2018-10-21T14:02:10.288Z,39.00
2018-10-21T14:07:16.669Z,39.13
2018-10-21T14:12:20.110Z,39.62
2018-10-21T14:17:23.475Z,40.95
2018-10-21T14:22:26.814Z,41.26
2018-10-21T14:27:30.243Z,41.81
2018-10-21T14:32:33.798Z,41.72
2018-10-21T14:37:37.672Z,41.71
2018-10-21T14:42:41.266Z,42.40
2018-10-21T14:47:44.823Z,42.65
2018-10-21T14:52:48.780Z,43.10
2018-10-21T14:57:52.266Z,43.34
2018-10-21T15:02:55.936Z,43.69
2018-10-21T15:07:59.648Z,44.20
2018-10-21T15:13:03.724Z,43.43
2018-10-21T15:18:07.588Z,43.68
2018-10-21T15:23:11.159Z,43.89
2018-10-21T15:28:15.026Z,45.03
2018-10-21T15:33:18.373Z,45.16
2018-10-21T15:38:21.874Z,46.01
2018-10-21T15:43:25.233Z,47.14
2018-10-21T15:48:28.654Z,47.66
2018-10-21T15:53:31.950Z,47.51
2018-10-21T15:58:35.335Z,48.39
2018-10-21T16:03:38.924Z,49.53
2018-10-21T16:08:42.232Z,50.09
2018-10-21T16:13:45.679Z,50.83
2018-10-21T16:18:49.018Z,51.22
2018-10-21T16:23:52.310Z,52.19
2018-10-21T16:28:55.716Z,52.71
2018-10-21T16:33:59.090Z,53.32
2018-10-21T16:39:02.460Z,53.63
2018-10-21T16:44:05.944Z,54.09
2018-10-21T16:49:09.255Z,54.66
2018-10-21T16:54:12.714Z,54.91
2018-10-21T16:59:16.063Z,55.29
2018-10-21T17:04:19.330Z,55.69
2018-10-21T17:09:22.763Z,56.22
2018-10-21T17:14:26.665Z,55.61
2018-10-21T17:19:30.661Z,56.28
2018-10-21T17:24:34.443Z,56.30
2018-10-21T17:29:37.873Z,56.17
2018-10-21T17:34:41.598Z,56.48
2018-10-21T17:39:45.195Z,56.42
2018-10-21T17:44:49.620Z,56.58
2018-10-21T17:49:53.410Z,56.01
2018-10-21T17:54:56.888Z,56.40
2018-10-21T18:00:00.436Z,56.85
2018-10-21T18:05:04.537Z,56.94
2018-10-21T18:10:08.005Z,57.09
2018-10-21T18:15:12.228Z,57.70
2018-10-21T18:20:15.706Z,57.36
2018-10-21T18:25:19.305Z,57.83
2018-10-21T18:30:23.604Z,57.72
2018-10-21T18:35:27.083Z,58.33
2018-10-21T18:40:30.512Z,58.33
2018-10-21T18:45:33.799Z,58.97
2018-10-21T18:50:37.222Z,58.17
2018-10-21T18:55:40.811Z,57.30
2018-10-21T19:00:44.286Z,57.91
2018-10-21T19:05:47.699Z,58.31
2018-10-21T19:10:51.076Z,58.56
2018-10-21T19:15:54.586Z,58.46
2018-10-21T19:20:57.958Z,58.49
2018-10-21T19:26:01.371Z,58.68
2018-10-21T19:31:04.727Z,59.03
2018-10-21T19:36:08.063Z,59.65
2018-10-21T19:41:11.446Z,60.22
2018-10-21T19:46:15.449Z,59.90
2018-10-21T19:51:18.972Z,59.36
2018-10-21T19:56:22.516Z,59.86
2018-10-21T20:01:25.934Z,60.45
2018-10-21T20:06:29.242Z,60.41
2018-10-21T20:11:32.534Z,60.80
2018-10-21T20:16:35.878Z,60.46
2018-10-21T20:21:40.142Z,60.67
2018-10-21T20:26:43.682Z,61.03
2018-10-21T20:31:47.151Z,60.32
2018-10-21T20:36:51.102Z,60.59
2018-10-21T20:41:55.267Z,59.34
2018-10-21T20:46:59.232Z,59.84
2018-10-21T20:52:02.756Z,59.90
2018-10-21T20:57:08.256Z,59.97
2018-10-21T21:02:12.767Z,61.03
2018-10-21T21:07:16.857Z,61.15
2018-10-21T21:12:20.210Z,61.28
2018-10-21T21:17:23.502Z,62.17
2018-10-21T21:22:27.022Z,61.89
2018-10-21T21:27:30.523Z,61.35
2018-10-21T21:43:49.368Z,61.89
2018-10-21T21:48:52.777Z,61.84
2018-10-21T21:53:56.115Z,61.37
2018-10-21T21:58:59.530Z,61.20
2018-10-21T22:04:02.930Z,61.04
2018-10-21T22:09:10.493Z,60.26
2018-10-21T22:14:13.777Z,60.32
2018-10-21T22:19:17.078Z,61.23
2018-10-21T22:24:20.448Z,61.62
2018-10-21T22:29:23.802Z,62.27
2018-10-21T22:34:27.134Z,62.14
2018-10-21T22:39:30.476Z,62.07
2018-10-21T22:44:33.830Z,61.63
2018-10-21T22:49:37.151Z,61.35
2018-10-21T22:54:40.469Z,61.16
2018-10-21T22:59:43.802Z,61.66
2018-10-21T23:04:47.570Z,61.17
2018-10-21T23:09:51.297Z,61.14
2018-10-21T23:14:54.668Z,61.90
2018-10-21T23:19:57.978Z,61.59
2018-10-21T23:25:01.349Z,61.47
2018-10-21T23:30:06.735Z,62.40
2018-10-21T23:35:10.039Z,62.74
2018-10-21T23:40:13.359Z,62.60
2018-10-21T23:45:16.662Z,62.72
2018-10-21T23:50:19.975Z,62.56
2018-10-21T23:55:23.264Z,61.48
